Time;durP1;ratioP1;P1;durP2;ratioP2;P2;SDS_P1;SDS_P2;PMS_P1;PMS_P2;Temp;Humidity;BMP_temperature;BMP_pressure;BME280_temperature;BME280_humidity;BME280_pressure;Samples;Min_cycle;Max_cycle;Signal;HPM_P1;HPM_P2
2022/01/28 00:01:05;;;;;;;;;;;14.40;56.20;;;;;;5113543;28;20276;-71
2022/01/28 00:03:32;;;;;;;;;;;14.40;56.30;;;;;;5112892;28;19930;-71
2022/01/28 00:05:59;;;;;;;;;;;14.30;56.20;;;;;;5114756;28;20357;-70
2022/01/28 00:08:25;;;;;;;;;;;14.40;56.30;;;;;;5098161;28;20023;-71
2022/01/28 00:10:52;;;;;;;;;;;14.30;56.30;;;;;;5093166;28;20010;-71
2022/01/28 00:13:22;;;;;;;;;;;14.30;56.30;;;;;;5093363;28;19964;-71
2022/01/28 00:16:10;;;;;;;;;;;14.30;56.30;;;;;;5092964;28;20335;-71
2022/01/28 00:38:05;;;;;;;;;;;14.10;56.30;;;;;;5113220;28;19920;-71
2022/01/28 00:40:32;;;;;;;;;;;14.10;56.30;;;;;;5112991;28;20391;-71
2022/01/28 00:42:58;;;;;;;;;;;14.10;56.40;;;;;;5114182;28;19930;-71
2022/01/28 00:45:25;;;;;;;;;;;14.10;56.40;;;;;;5113984;28;19961;-70
2022/01/28 00:47:53;;;;;;;;;;;14.10;56.40;;;;;;5114049;28;20351;-70
2022/01/28 00:50:20;;;;;;;;;;;14.10;56.40;;;;;;5114192;28;19927;-70
2022/01/28 00:52:46;;;;;;;;;;;14.00;56.40;;;;;;5113028;28;19927;-71
2022/01/28 00:55:13;;;;;;;;;;;14.00;56.40;;;;;;5112802;28;20019;-71
2022/01/28 00:57:40;;;;;;;;;;;14.00;56.40;;;;;;5113856;28;20014;-70
2022/01/28 01:00:07;;;;;;;;;;;14.00;56.40;;;;;;5112364;28;20002;-71
2022/01/28 01:02:33;;;;;;;;;;;14.00;56.40;;;;;;5112266;28;19967;-69
2022/01/28 01:05:01;;;;;;;;;;;14.00;56.40;;;;;;5112702;28;20015;-71
2022/01/28 01:07:30;;;;;;;;;;;13.90;56.40;;;;;;5113573;28;19977;-71
2022/01/28 01:09:57;;;;;;;;;;;14.00;56.50;;;;;;5112646;28;20376;-71
2022/01/28 01:12:26;;;;;;;;;;;13.90;56.40;;;;;;5113529;28;19923;-71
2022/01/28 01:14:53;;;;;;;;;;;13.90;56.50;;;;;;5113260;28;19969;-70
2022/01/28 01:17:28;;;;;;;;;;;13.90;56.50;;;;;;5112325;28;19973;-70
2022/01/28 01:20:09;;;;;;;;;;;13.90;56.50;;;;;;5113784;28;19931;-71
2022/01/28 01:22:39;;;;;;;;;;;13.90;56.50;;;;;;5112429;28;20018;-71
2022/01/28 01:25:14;;;;;;;;;;;13.90;56.50;;;;;;5113362;28;20023;-71
2022/01/28 01:27:41;;;;;;;;;;;13.90;56.50;;;;;;5111965;28;19931;-71
2022/01/28 01:30:09;;;;;;;;;;;13.80;56.50;;;;;;5111933;28;20004;-71
2022/01/28 01:32:35;;;;;;;;;;;13.80;56.50;;;;;;5113324;28;19943;-71
2022/01/28 01:35:02;;;;;;;;;;;13.80;56.50;;;;;;5112135;28;20428;-71
2022/01/28 01:37:28;;;;;;;;;;;13.80;56.50;;;;;;5113023;28;20019;-71
2022/01/28 01:39:57;;;;;;;;;;;13.80;56.50;;;;;;5112789;28;20018;-71
2022/01/28 01:42:31;;;;;;;;;;;13.80;56.50;;;;;;5112882;28;20080;-71
2022/01/28 01:53:26;;;;;;;;;;;13.70;56.50;;;;;;5033659;28;19920;-71
2022/01/28 01:55:54;;;;;;;;;;;13.80;56.50;;;;;;5079358;28;20010;-71
2022/01/28 01:58:24;;;;;;;;;;;13.70;56.50;;;;;;5111835;28;20109;-71
2022/01/28 02:00:51;;;;;;;;;;;13.70;56.50;;;;;;5111493;28;19924;-69
2022/01/28 02:03:18;;;;;;;;;;;13.70;56.50;;;;;;5112796;28;20014;-71
2022/01/28 02:05:45;;;;;;;;;;;13.70;56.50;;;;;;5111452;28;20424;-71
2022/01/28 02:08:11;;;;;;;;;;;13.70;56.50;;;;;;5111674;28;20002;-69
2022/01/28 02:10:38;;;;;;;;;;;13.60;56.50;;;;;;5111648;28;19924;-70
2022/01/28 02:13:06;;;;;;;;;;;13.70;56.60;;;;;;5112824;28;20355;-70
2022/01/28 02:15:32;;;;;;;;;;;13.60;56.50;;;;;;5112401;28;20018;-71
2022/01/28 02:17:59;;;;;;;;;;;13.60;56.50;;;;;;5111604;28;19967;-70
2022/01/28 02:20:32;;;;;;;;;;;13.60;56.60;;;;;;5112926;28;20312;-71
2022/01/28 02:22:58;;;;;;;;;;;13.70;56.60;;;;;;5111498;28;20002;-71
2022/01/28 02:25:26;;;;;;;;;;;13.70;56.60;;;;;;5111048;28;19967;-71
2022/01/28 02:27:52;;;;;;;;;;;13.60;56.60;;;;;;5114860;28;19988;-71
2022/01/28 02:30:19;;;;;;;;;;;13.70;56.60;;;;;;5115628;28;19927;-71
2022/01/28 02:32:48;;;;;;;;;;;13.60;56.50;;;;;;5116642;28;20367;-71
2022/01/28 02:35:14;;;;;;;;;;;13.60;56.50;;;;;;5116588;28;19967;-71
2022/01/28 02:37:42;;;;;;;;;;;13.60;56.50;;;;;;5115442;28;19924;-71
2022/01/28 02:40:09;;;;;;;;;;;13.60;56.50;;;;;;5116416;28;19924;-71
2022/01/28 02:42:50;;;;;;;;;;;13.70;56.50;;;;;;5115126;28;20023;-69
2022/01/28 02:45:25;;;;;;;;;;;13.60;56.40;;;;;;5115383;28;20402;-71
2022/01/28 02:47:56;;;;;;;;;;;13.60;56.50;;;;;;5115314;28;19936;-71
2022/01/28 02:50:24;;;;;;;;;;;13.70;56.50;;;;;;5115411;28;20426;-70
2022/01/28 02:53:02;;;;;;;;;;;13.70;56.50;;;;;;5116360;28;20018;-69
2022/01/28 02:55:31;;;;;;;;;;;13.70;56.40;;;;;;5113068;28;19963;-71
2022/01/28 02:58:14;;;;;;;;;;;13.70;56.50;;;;;;5095775;28;19931;-71
2022/01/28 03:00:41;;;;;;;;;;;13.70;56.50;;;;;;5094708;28;19924;-71
2022/01/28 03:03:08;;;;;;;;;;;13.70;56.40;;;;;;5094740;28;19931;-70
2022/01/28 03:05:34;;;;;;;;;;;13.70;56.40;;;;;;5095366;28;19924;-71
2022/01/28 03:08:04;;;;;;;;;;;13.70;56.40;;;;;;5095270;28;19924;-70
2022/01/28 03:10:41;;;;;;;;;;;13.70;56.40;;;;;;5094569;28;19959;-71
2022/01/28 03:15:54;;;;;;;;;;;13.80;56.30;;;;;;5095222;28;19920;-71
2022/01/28 03:18:25;;;;;;;;;;;13.80;56.40;;;;;;5095339;28;20484;-71
2022/01/28 03:21:17;;;;;;;;;;;13.80;56.30;;;;;;5094120;28;20377;-71
2022/01/28 03:24:00;;;;;;;;;;;13.90;56.30;;;;;;5094308;28;19928;-71
2022/01/28 03:26:28;;;;;;;;;;;13.90;56.30;;;;;;5093775;28;19973;-71
2022/01/28 03:28:54;;;;;;;;;;;13.90;56.30;;;;;;5093948;28;20022;-71
2022/01/28 03:31:21;;;;;;;;;;;13.90;56.20;;;;;;5094185;28;20003;-71
2022/01/28 03:33:48;;;;;;;;;;;13.90;56.20;;;;;;5094059;28;19931;-70
2022/01/28 03:36:15;;;;;;;;;;;14.00;56.20;;;;;;5093321;28;20007;-70
2022/01/28 03:38:41;;;;;;;;;;;14.00;56.20;;;;;;5094066;28;19924;-70
2022/01/28 03:41:15;;;;;;;;;;;13.90;56.10;;;;;;5093695;28;19928;-70
2022/01/28 03:43:42;;;;;;;;;;;14.00;56.10;;;;;;5093932;28;19987;-70
2022/01/28 03:46:09;;;;;;;;;;;14.00;56.10;;;;;;5094694;28;20000;-71
2022/01/28 03:48:36;;;;;;;;;;;14.00;56.10;;;;;;5093785;28;19973;-70
2022/01/28 03:51:02;;;;;;;;;;;14.00;56.00;;;;;;5095073;28;20021;-70
2022/01/28 03:53:29;;;;;;;;;;;14.00;56.00;;;;;;5093784;28;19930;-71
2022/01/28 03:55:57;;;;;;;;;;;14.00;55.90;;;;;;5100838;28;19930;-71
2022/01/28 03:58:25;;;;;;;;;;;14.10;56.50;;;;;;5113750;28;19930;-69
2022/01/28 04:00:53;;;;;;;;;;;14.10;56.00;;;;;;5114926;28;20006;-71
2022/01/28 04:03:39;;;;;;;;;;;14.00;55.90;;;;;;5113524;28;19924;-71
2022/01/28 04:11:27;;;;;;;;;;;14.10;56.00;;;;;;5114642;28;19924;-71
2022/01/28 04:11:53;;;;;;;;;;;14.10;55.90;;;;;;5113399;28;19920;-70
2022/01/28 04:14:36;;;;;;;;;;;14.10;55.90;;;;;;5113696;28;19985;-71
2022/01/28 04:17:22;;;;;;;;;;;15.00;56.40;;;;;;5113512;28;20395;-70
2022/01/28 04:19:52;;;;;;;;;;;14.10;55.80;;;;;;5113696;28;19924;-71
2022/01/28 04:22:18;;;;;;;;;;;14.10;55.80;;;;;;5114516;28;19924;-70
2022/01/28 04:24:45;;;;;;;;;;;14.20;55.80;;;;;;5113247;28;19955;-70
2022/01/28 04:27:11;;;;;;;;;;;14.10;55.80;;;;;;5112948;28;19959;-71
2022/01/28 04:29:39;;;;;;;;;;;14.20;55.80;;;;;;5113461;28;19924;-71
2022/01/28 04:32:06;;;;;;;;;;;14.20;55.80;;;;;;5113350;28;19935;-71
2022/01/28 04:34:33;;;;;;;;;;;14.20;55.80;;;;;;5112968;28;20287;-69
2022/01/28 04:37:08;;;;;;;;;;;14.20;55.70;;;;;;5114020;28;20277;-71
2022/01/28 04:39:42;;;;;;;;;;;14.20;55.80;;;;;;5112929;28;19928;-71
2022/01/28 04:42:17;;;;;;;;;;;14.20;55.80;;;;;;5112834;28;19931;-71
2022/01/28 04:44:56;;;;;;;;;;;14.20;55.80;;;;;;5114112;28;20384;-70
2022/01/28 04:47:29;;;;;;;;;;;14.20;55.70;;;;;;5114163;28;19924;-71
2022/01/28 04:50:05;;;;;;;;;;;14.20;55.70;;;;;;5112784;28;19970;-70
2022/01/28 04:55:29;;;;;;;;;;;14.20;55.70;;;;;;5111607;28;19959;-69
2022/01/28 04:58:03;;;;;;;;;;;14.20;55.70;;;;;;5093394;28;19924;-69
2022/01/28 05:00:41;;;;;;;;;;;14.20;55.70;;;;;;5093592;28;20460;-71
2022/01/28 05:03:27;;;;;;;;;;;14.20;55.70;;;;;;5092175;28;20346;-70
2022/01/28 05:06:27;;;;;;;;;;;14.20;55.70;;;;;;5093240;28;20339;-71
2022/01/28 05:09:25;;;;;;;;;;;14.20;55.60;;;;;;5093112;28;19949;-69
2022/01/28 05:14:56;;;;;;;;;;;14.20;55.70;;;;;;5087656;28;19920;-70
2022/01/28 05:28:23;;;;;;;;;;;14.20;55.60;;;;;;5065956;28;19928;-71
2022/01/28 05:30:50;;;;;;;;;;;14.20;55.60;;;;;;5091911;28;20011;-70
2022/01/28 05:33:17;;;;;;;;;;;14.20;55.60;;;;;;5092918;28;19924;-70
2022/01/28 05:35:44;;;;;;;;;;;14.20;55.60;;;;;;5092361;28;20429;-71
2022/01/28 05:38:11;;;;;;;;;;;14.20;55.60;;;;;;5091598;28;20006;-70
2022/01/28 05:40:37;;;;;;;;;;;14.20;55.70;;;;;;5092590;28;19928;-70
2022/01/28 05:43:04;;;;;;;;;;;14.20;55.60;;;;;;5092322;28;19930;-71
2022/01/28 05:45:31;;;;;;;;;;;14.20;55.60;;;;;;5090950;28;20011;-69
2022/01/28 05:47:58;;;;;;;;;;;14.20;55.60;;;;;;5092667;28;19928;-71
2022/01/28 05:50:26;;;;;;;;;;;14.20;55.60;;;;;;5092402;28;20511;-71
2022/01/28 05:52:52;;;;;;;;;;;14.20;55.60;;;;;;5091307;28;19970;-71
2022/01/28 05:55:19;;;;;;;;;;;14.20;55.60;;;;;;5092477;28;20015;-69
2022/01/28 05:57:46;;;;;;;;;;;14.20;55.50;;;;;;5112596;28;20392;-71
2022/01/28 06:00:13;;;;;;;;;;;14.20;55.60;;;;;;5112599;28;19959;-70
2022/01/28 06:02:39;;;;;;;;;;;14.20;55.50;;;;;;5111881;28;19924;-70
2022/01/28 06:05:07;;;;;;;;;;;14.20;55.50;;;;;;5112289;28;19953;-71
2022/01/28 06:07:41;;;;;;;;;;;14.20;55.50;;;;;;5111285;28;19976;-70
2022/01/28 06:10:08;;;;;;;;;;;14.20;55.50;;;;;;5112678;28;20011;-70
2022/01/28 06:12:38;;;;;;;;;;;14.20;55.50;;;;;;5111731;28;19955;-70
2022/01/28 06:15:06;;;;;;;;;;;14.20;55.50;;;;;;5111462;28;20026;-69
2022/01/28 06:17:32;;;;;;;;;;;14.20;56.10;;;;;;5112998;28;20360;-70
2022/01/28 06:19:59;;;;;;;;;;;14.20;55.50;;;;;;5112841;28;20029;-70
2022/01/28 06:22:25;;;;;;;;;;;14.30;55.60;;;;;;5111143;28;19923;-70
2022/01/28 06:24:53;;;;;;;;;;;14.20;55.50;;;;;;5112657;28;19923;-69
2022/01/28 06:27:22;;;;;;;;;;;14.30;55.50;;;;;;5111172;28;19927;-69
2022/01/28 06:29:48;;;;;;;;;;;14.20;55.50;;;;;;5112628;28;19930;-70
2022/01/28 06:32:16;;;;;;;;;;;14.20;55.50;;;;;;5104285;28;20015;-70
2022/01/28 06:34:42;;;;;;;;;;;14.30;55.50;;;;;;5101741;28;19998;-69
2022/01/28 06:37:09;;;;;;;;;;;14.30;55.50;;;;;;5098891;28;19930;-71
2022/01/28 06:39:36;;;;;;;;;;;14.30;55.50;;;;;;5100960;28;20460;-70
2022/01/28 06:42:04;;;;;;;;;;;14.20;55.50;;;;;;5099601;28;19924;-69
2022/01/28 06:44:31;;;;;;;;;;;14.20;55.50;;;;;;5102377;28;20305;-70
2022/01/28 06:46:58;;;;;;;;;;;14.30;55.50;;;;;;5102010;28;19924;-70
2022/01/28 06:49:24;;;;;;;;;;;14.30;55.50;;;;;;5100669;28;19931;-69
2022/01/28 06:51:51;;;;;;;;;;;14.30;55.50;;;;;;5102014;28;19930;-70
2022/01/28 06:54:17;;;;;;;;;;;14.40;55.50;;;;;;5102225;28;20311;-70
2022/01/28 06:56:44;;;;;;;;;;;14.40;55.40;;;;;;5098230;28;19930;-71
2022/01/28 06:59:12;;;;;;;;;;;14.40;55.40;;;;;;5102075;28;20415;-70
2022/01/28 07:01:39;;;;;;;;;;;14.40;55.40;;;;;;5102235;28;20006;-69
2022/01/28 07:04:05;;;;;;;;;;;14.40;55.40;;;;;;5100795;28;19930;-70
2022/01/28 07:06:32;;;;;;;;;;;14.50;55.90;;;;;;5102342;28;20388;-70
2022/01/28 07:08:59;;;;;;;;;;;14.50;55.30;;;;;;5099844;28;20011;-70
2022/01/28 07:11:26;;;;;;;;;;;14.50;55.30;;;;;;5100109;28;20007;-70
2022/01/28 07:13:52;;;;;;;;;;;14.50;55.30;;;;;;5104299;28;19924;-70
2022/01/28 07:16:20;;;;;;;;;;;14.50;55.20;;;;;;5106811;28;20323;-70
2022/01/28 07:18:47;;;;;;;;;;;14.50;55.20;;;;;;5103640;28;19964;-70
2022/01/28 07:21:13;;;;;;;;;;;14.50;55.10;;;;;;5103762;28;20022;-70
2022/01/28 07:23:40;;;;;;;;;;;14.50;55.10;;;;;;5102441;28;20034;-70
2022/01/28 07:26:06;;;;;;;;;;;14.60;55.10;;;;;;5103636;28;20011;-70
2022/01/28 07:28:35;;;;;;;;;;;14.60;55.10;;;;;;5106206;28;20014;-71
2022/01/28 07:31:01;;;;;;;;;;;14.60;55.10;;;;;;5111732;28;19988;-70
2022/01/28 07:33:29;;;;;;;;;;;14.60;55.10;;;;;;5108964;28;19975;-70
2022/01/28 07:35:56;;;;;;;;;;;14.60;55.00;;;;;;5103388;28;19968;-69
2022/01/28 07:38:22;;;;;;;;;;;14.60;55.00;;;;;;5104111;28;20399;-71
2022/01/28 07:40:49;;;;;;;;;;;14.60;54.90;;;;;;5103935;28;20003;-72
2022/01/28 07:43:15;;;;;;;;;;;14.70;55.00;;;;;;5113910;28;19924;-72
2022/01/28 07:45:42;;;;;;;;;;;14.70;55.00;;;;;;5113758;28;19924;-72
2022/01/28 07:48:08;;;;;;;;;;;14.70;54.90;;;;;;5115128;28;20093;-72
2022/01/28 07:50:36;;;;;;;;;;;14.70;55.00;;;;;;5115295;28;19924;-72
2022/01/28 07:53:05;;;;;;;;;;;14.70;55.10;;;;;;5115221;28;20006;-72
2022/01/28 07:55:31;;;;;;;;;;;14.80;55.40;;;;;;5106087;28;20379;-72
2022/01/28 07:57:58;;;;;;;;;;;14.80;55.10;;;;;;5093773;28;20011;-72
2022/01/28 08:00:27;;;;;;;;;;;14.80;55.10;;;;;;5093548;28;19930;-71
2022/01/28 08:02:53;;;;;;;;;;;14.80;55.00;;;;;;5093331;28;19924;-72
2022/01/28 08:05:20;;;;;;;;;;;14.80;55.00;;;;;;5104395;28;19928;-72
2022/01/28 08:07:48;;;;;;;;;;;14.80;54.90;;;;;;5113821;28;20006;-70
2022/01/28 08:10:16;;;;;;;;;;;14.90;55.00;;;;;;5113692;28;19931;-69
2022/01/28 08:12:46;;;;;;;;;;;14.90;55.00;;;;;;5113314;28;19946;-70
2022/01/28 08:15:13;;;;;;;;;;;14.90;55.00;;;;;;5114067;28;20006;-71
2022/01/28 08:17:39;;;;;;;;;;;14.90;55.00;;;;;;5111536;28;20011;-72
2022/01/28 08:20:07;;;;;;;;;;;14.90;54.90;;;;;;5111565;28;19946;-71
2022/01/28 08:22:33;;;;;;;;;;;14.90;54.90;;;;;;5111407;28;19934;-71
2022/01/28 08:25:01;;;;;;;;;;;14.90;54.90;;;;;;5110733;28;19923;-72
2022/01/28 08:27:28;;;;;;;;;;;14.80;54.90;;;;;;5110979;28;20432;-71
2022/01/28 08:29:54;;;;;;;;;;;14.90;54.90;;;;;;5111367;28;20448;-72
2022/01/28 08:32:21;;;;;;;;;;;14.90;55.00;;;;;;5113157;28;20010;-71
2022/01/28 08:34:47;;;;;;;;;;;14.90;54.90;;;;;;5114196;28;19924;-74
2022/01/28 08:37:14;;;;;;;;;;;15.10;55.10;;;;;;5112632;28;19963;-72
2022/01/28 08:39:41;;;;;;;;;;;14.90;54.90;;;;;;5113096;28;20392;-75
2022/01/28 08:42:09;;;;;;;;;;;15.30;55.20;;;;;;5111690;28;20011;-73
2022/01/28 08:44:36;;;;;;;;;;;14.90;54.90;;;;;;5112575;28;19930;-73
2022/01/28 08:47:02;;;;;;;;;;;14.90;54.90;;;;;;5112892;28;20007;-73
2022/01/28 08:49:29;;;;;;;;;;;14.90;54.90;;;;;;5110627;28;19924;-73
2022/01/28 08:51:55;;;;;;;;;;;14.90;54.80;;;;;;5112811;28;20011;-73
2022/01/28 08:54:22;;;;;;;;;;;14.90;54.80;;;;;;5113325;28;20018;-73
2022/01/28 08:56:49;;;;;;;;;;;14.90;54.80;;;;;;5112600;28;20018;-73
2022/01/28 08:59:17;;;;;;;;;;;14.90;54.80;;;;;;5112591;28;20403;-73
2022/01/28 09:01:43;;;;;;;;;;;14.90;54.80;;;;;;5112451;28;20010;-73
2022/01/28 09:04:10;;;;;;;;;;;15.00;54.80;;;;;;5112065;28;19924;-72
2022/01/28 09:06:36;;;;;;;;;;;15.00;54.80;;;;;;5112428;28;20459;-73
2022/01/28 09:09:03;;;;;;;;;;;15.00;54.80;;;;;;5113698;28;20018;-73
2022/01/28 09:11:33;;;;;;;;;;;15.00;54.80;;;;;;5112183;28;19932;-73
2022/01/28 09:14:01;;;;;;;;;;;15.00;54.80;;;;;;5112441;28;20380;-72
2022/01/28 09:16:29;;;;;;;;;;;15.00;54.80;;;;;;5112051;28;19930;-74
2022/01/28 09:18:56;;;;;;;;;;;15.00;54.70;;;;;;5112366;28;20014;-73
2022/01/28 09:21:22;;;;;;;;;;;15.00;54.70;;;;;;5113398;28;19947;-73
2022/01/28 09:23:49;;;;;;;;;;;15.00;54.70;;;;;;5112174;28;19934;-74
2022/01/28 09:26:16;;;;;;;;;;;15.00;54.70;;;;;;5111925;28;20014;-74
2022/01/28 09:28:42;;;;;;;;;;;15.00;55.30;;;;;;5111745;28;20387;-74
2022/01/28 09:31:09;;;;;;;;;;;15.50;55.00;;;;;;5099149;28;20010;-73
2022/01/28 09:33:37;;;;;;;;;;;15.00;54.70;;;;;;5091775;28;19924;-74
2022/01/28 09:36:04;;;;;;;;;;;15.00;54.60;;;;;;5090348;28;20300;-74
2022/01/28 09:38:31;;;;;;;;;;;15.00;54.70;;;;;;5091382;28;20014;-74
2022/01/28 09:40:59;;;;;;;;;;;15.00;54.70;;;;;;5091642;28;20015;-74
2022/01/28 09:43:25;;;;;;;;;;;15.00;54.70;;;;;;5091239;28;19924;-73
2022/01/28 09:45:52;;;;;;;;;;;15.00;54.60;;;;;;5090969;28;19924;-73
2022/01/28 09:48:19;;;;;;;;;;;15.40;54.80;;;;;;5091478;28;20035;-74
2022/01/28 09:50:47;;;;;;;;;;;15.10;54.70;;;;;;5091600;28;19947;-74
2022/01/28 09:53:14;;;;;;;;;;;15.10;54.70;;;;;;5105034;28;20381;-73
2022/01/28 09:55:41;;;;;;;;;;;15.10;54.70;;;;;;5111232;28;19931;-74
2022/01/28 09:58:07;;;;;;;;;;;15.10;54.60;;;;;;5111460;28;19923;-70
2022/01/28 10:00:34;;;;;;;;;;;15.10;54.60;;;;;;5111445;28;20011;-72
2022/01/28 10:03:01;;;;;;;;;;;15.10;54.50;;;;;;5097229;28;20010;-72
2022/01/28 10:05:28;;;;;;;;;;;15.10;54.50;;;;;;5091392;28;19924;-70
2022/01/28 10:08:06;;;;;;;;;;;15.10;54.50;;;;;;5089041;28;20011;-71
2022/01/28 10:10:40;;;;;;;;;;;15.10;54.50;;;;;;5090010;28;19989;-72
2022/01/28 10:13:08;;;;;;;;;;;15.10;54.50;;;;;;5090616;28;19928;-72
2022/01/28 10:15:35;;;;;;;;;;;15.20;54.50;;;;;;5089533;28;19931;-72
2022/01/28 10:18:02;;;;;;;;;;;15.10;54.50;;;;;;5091404;28;20018;-70
2022/01/28 10:20:28;;;;;;;;;;;15.10;54.50;;;;;;5090409;28;19983;-72
2022/01/28 10:22:55;;;;;;;;;;;15.10;54.50;;;;;;5090898;28;19928;-72
2022/01/28 10:25:24;;;;;;;;;;;15.10;54.50;;;;;;5090269;28;20303;-69
2022/01/28 10:27:58;;;;;;;;;;;15.10;54.50;;;;;;5092065;28;20440;-72
2022/01/28 10:30:24;;;;;;;;;;;15.10;54.50;;;;;;5092041;28;20356;-71
2022/01/28 10:33:06;;;;;;;;;;;15.10;54.50;;;;;;5093091;28;20010;-73
2022/01/28 10:35:32;;;;;;;;;;;15.10;54.50;;;;;;5099919;28;20388;-72
2022/01/28 10:37:59;;;;;;;;;;;15.00;54.40;;;;;;5099730;28;20043;-73
2022/01/28 10:40:27;;;;;;;;;;;15.00;54.50;;;;;;5097607;28;19928;-74
2022/01/28 10:42:53;;;;;;;;;;;15.10;54.50;;;;;;5099086;28;20030;-73
2022/01/28 10:45:20;;;;;;;;;;;15.10;54.50;;;;;;5102075;28;20015;-74
2022/01/28 10:47:47;;;;;;;;;;;15.10;54.50;;;;;;5100360;28;20356;-73
2022/01/28 10:50:22;;;;;;;;;;;15.00;54.40;;;;;;5098174;28;19924;-73
2022/01/28 10:52:57;;;;;;;;;;;15.10;54.40;;;;;;5094071;28;19931;-73
2022/01/28 10:55:24;;;;;;;;;;;15.00;54.30;;;;;;5101328;28;20044;-72
2022/01/28 10:57:58;;;;;;;;;;;15.10;54.40;;;;;;5103027;28;20007;-73
2022/01/28 11:00:26;;;;;;;;;;;15.00;54.30;;;;;;5104868;28;19970;-73
2022/01/28 11:02:53;;;;;;;;;;;15.10;54.40;;;;;;5104247;28;20442;-72
2022/01/28 11:05:21;;;;;;;;;;;15.10;54.40;;;;;;5102349;28;19928;-73
2022/01/28 11:07:48;;;;;;;;;;;15.10;54.30;;;;;;5104383;28;19931;-73
2022/01/28 11:10:14;;;;;;;;;;;15.10;54.30;;;;;;5104459;28;19995;-73
2022/01/28 11:12:41;;;;;;;;;;;15.10;54.30;;;;;;5102777;28;20019;-73
2022/01/28 11:15:09;;;;;;;;;;;15.10;54.30;;;;;;5103162;28;19959;-73
2022/01/28 11:17:37;;;;;;;;;;;15.10;54.20;;;;;;5103817;28;20004;-74
2022/01/28 11:20:03;;;;;;;;;;;15.10;54.20;;;;;;5103863;28;19930;-74
2022/01/28 11:22:39;;;;;;;;;;;15.10;54.20;;;;;;5114054;28;19974;-74
2022/01/28 11:25:16;;;;;;;;;;;15.10;54.20;;;;;;5114934;28;19928;-74
2022/01/28 11:27:42;;;;;;;;;;;15.10;54.20;;;;;;5113519;28;20034;-74
2022/01/28 11:30:22;;;;;;;;;;;15.10;54.20;;;;;;5113996;28;20011;-74
2022/01/28 11:32:59;;;;;;;;;;;15.10;54.20;;;;;;5113287;28;19927;-74
2022/01/28 11:35:26;;;;;;;;;;;15.10;54.10;;;;;;5114294;28;19923;-73
2022/01/28 11:37:56;;;;;;;;;;;15.10;54.10;;;;;;5114423;28;20010;-74
2022/01/28 11:40:23;;;;;;;;;;;15.00;54.10;;;;;;5115213;28;20395;-73
2022/01/28 11:42:49;;;;;;;;;;;15.00;54.10;;;;;;5113829;28;20023;-74
2022/01/28 11:45:16;;;;;;;;;;;15.00;54.10;;;;;;5113675;28;19930;-72
2022/01/28 11:47:53;;;;;;;;;;;15.00;54.10;;;;;;5113855;28;20010;-73
2022/01/28 11:50:21;;;;;;;;;;;15.00;54.10;;;;;;5113946;28;20023;-73
2022/01/28 11:52:48;;;;;;;;;;;15.00;54.30;;;;;;5114613;28;19959;-73
2022/01/28 11:55:31;;;;;;;;;;;15.00;54.40;;;;;;5113763;28;20472;-72
2022/01/28 11:57:58;;;;;;;;;;;14.90;54.30;;;;;;5114184;28;19923;-73
2022/01/28 12:00:24;;;;;;;;;;;14.90;54.30;;;;;;5113798;28;20364;-74
2022/01/28 12:02:53;;;;;;;;;;;14.90;54.30;;;;;;5113773;28;20303;-73
2022/01/28 12:05:27;;;;;;;;;;;14.90;54.30;;;;;;5113530;28;20399;-73
2022/01/28 12:07:54;;;;;;;;;;;14.90;54.30;;;;;;5114003;28;20010;-73
2022/01/28 12:10:20;;;;;;;;;;;15.10;54.40;;;;;;5113729;28;20436;-73
2022/01/28 12:12:56;;;;;;;;;;;14.90;54.30;;;;;;5105469;28;20006;-72
2022/01/28 12:15:24;;;;;;;;;;;14.90;54.30;;;;;;5111519;28;19924;-72
2022/01/28 12:17:50;;;;;;;;;;;14.80;54.30;;;;;;5112134;28;19934;-73
2022/01/28 12:20:24;;;;;;;;;;;14.80;54.30;;;;;;5113373;28;20451;-72
2022/01/28 12:23:03;;;;;;;;;;;14.80;54.30;;;;;;5114601;28;19927;-73
2022/01/28 12:25:49;;;;;;;;;;;14.80;54.40;;;;;;5112782;28;20018;-73
2022/01/28 12:28:16;;;;;;;;;;;14.80;54.50;;;;;;5113340;28;20019;-74
2022/01/28 12:30:43;;;;;;;;;;;14.90;54.60;;;;;;5105330;28;19974;-74
2022/01/28 12:33:09;;;;;;;;;;;14.80;54.80;;;;;;5104111;28;20010;-73
2022/01/28 12:35:38;;;;;;;;;;;14.80;54.90;;;;;;5112633;28;19924;-74
2022/01/28 12:38:05;;;;;;;;;;;14.90;55.00;;;;;;5105782;28;20003;-72
2022/01/28 12:40:36;;;;;;;;;;;14.90;54.90;;;;;;5103611;28;19928;-71
2022/01/28 12:43:03;;;;;;;;;;;14.90;54.80;;;;;;5117916;27;20016;-73
2022/01/28 12:45:29;;;;;;;;;;;14.90;54.70;;;;;;5102971;28;20098;-73
2022/01/28 12:47:56;;;;;;;;;;;14.90;54.70;;;;;;5101017;28;19930;-74
2022/01/28 12:50:24;;;;;;;;;;;14.90;54.70;;;;;;5100847;28;20356;-74
2022/01/28 12:52:52;;;;;;;;;;;14.90;54.60;;;;;;5103203;28;20477;-74
2022/01/28 12:55:18;;;;;;;;;;;15.00;54.70;;;;;;5100931;28;20015;-74
2022/01/28 12:57:45;;;;;;;;;;;14.90;54.60;;;;;;5102884;28;20376;-74
2022/01/28 13:00:13;;;;;;;;;;;15.00;54.60;;;;;;5101716;28;20007;-74
2022/01/28 13:02:40;;;;;;;;;;;15.00;54.50;;;;;;5102410;28;20018;-74
2022/01/28 13:05:15;;;;;;;;;;;15.00;54.60;;;;;;5100651;28;19963;-74
2022/01/28 13:10:29;;;;;;;;;;;15.00;54.60;;;;;;5095087;28;19920;-74
2022/01/28 13:13:02;;;;;;;;;;;15.00;54.50;;;;;;5112447;28;19923;-74
2022/01/28 13:15:28;;;;;;;;;;;15.00;54.50;;;;;;5111980;28;20031;-72
2022/01/28 13:17:55;;;;;;;;;;;15.00;54.40;;;;;;5112436;28;19971;-73
2022/01/28 13:20:22;;;;;;;;;;;15.10;54.50;;;;;;5112332;28;20030;-74
2022/01/28 13:22:49;;;;;;;;;;;15.10;54.50;;;;;;5111810;28;20018;-74
2022/01/28 13:25:16;;;;;;;;;;;15.10;54.50;;;;;;5111861;28;20015;-73
2022/01/28 13:27:45;;;;;;;;;;;15.10;54.50;;;;;;5111929;28;20018;-74
2022/01/28 13:30:14;;;;;;;;;;;15.10;54.40;;;;;;5113507;28;19928;-74
2022/01/28 13:32:42;;;;;;;;;;;15.10;54.40;;;;;;5111881;28;20018;-72
2022/01/28 13:35:11;;;;;;;;;;;15.10;54.40;;;;;;5111786;28;19928;-74
2022/01/28 13:37:40;;;;;;;;;;;15.10;54.40;;;;;;5111506;28;20397;-74
2022/01/28 13:40:07;;;;;;;;;;;15.10;54.30;;;;;;5111945;28;20422;-74
2022/01/28 13:42:34;;;;;;;;;;;15.10;54.30;;;;;;5112102;28;20014;-73
2022/01/28 13:45:04;;;;;;;;;;;15.20;54.30;;;;;;5111513;28;20010;-74
2022/01/28 13:47:49;;;;;;;;;;;15.20;54.20;;;;;;5111711;28;19927;-74
2022/01/28 13:50:22;;;;;;;;;;;15.20;54.20;;;;;;5111843;28;19971;-73
2022/01/28 13:52:50;;;;;;;;;;;15.20;54.20;;;;;;5112081;28;20006;-74
2022/01/28 13:55:33;;;;;;;;;;;15.20;54.20;;;;;;5110274;28;19924;-74
2022/01/28 13:58:03;;;;;;;;;;;15.20;54.20;;;;;;5091422;28;19934;-72
2022/01/28 14:00:38;;;;;;;;;;;15.20;54.20;;;;;;5091146;28;20003;-72
2022/01/28 14:03:04;;;;;;;;;;;15.20;54.20;;;;;;5092739;28;19969;-74
2022/01/28 14:05:46;;;;;;;;;;;15.20;54.80;;;;;;5091958;28;20415;-74
2022/01/28 14:08:12;;;;;;;;;;;15.20;54.20;;;;;;5090951;28;20023;-74
2022/01/28 14:10:39;;;;;;;;;;;15.20;54.20;;;;;;5091234;28;20018;-74
2022/01/28 14:13:18;;;;;;;;;;;15.20;54.20;;;;;;5091411;28;20007;-74
2022/01/28 14:16:01;;;;;;;;;;;15.20;54.20;;;;;;5090796;28;20011;-74
2022/01/28 14:18:27;;;;;;;;;;;15.20;54.10;;;;;;5109538;28;19923;-70
2022/01/28 14:20:54;;;;;;;;;;;15.20;54.10;;;;;;5113162;28;19930;-74
2022/01/28 14:23:20;;;;;;;;;;;15.20;54.70;;;;;;5107575;28;20022;-72
2022/01/28 14:25:47;;;;;;;;;;;15.20;54.10;;;;;;5116410;28;19950;-74
2022/01/28 14:28:36;;;;;;;;;;;15.20;54.10;;;;;;5115175;28;19974;-72
2022/01/28 14:31:08;;;;;;;;;;;15.20;54.10;;;;;;5116604;28;19924;-72
2022/01/28 14:33:35;;;;;;;;;;;15.20;54.10;;;;;;5116592;28;19932;-73
2022/01/28 14:36:02;;;;;;;;;;;15.20;54.10;;;;;;5116391;28;20277;-73
2022/01/28 14:38:28;;;;;;;;;;;15.20;54.20;;;;;;5116621;28;19998;-73
2022/01/28 14:40:55;;;;;;;;;;;15.20;54.20;;;;;;5115420;28;19924;-73
2022/01/28 14:43:21;;;;;;;;;;;15.20;54.10;;;;;;5115527;28;20024;-73
2022/01/28 14:45:48;;;;;;;;;;;15.20;54.10;;;;;;5114385;28;19934;-72
2022/01/28 14:48:20;;;;;;;;;;;15.20;54.10;;;;;;5115381;28;20002;-73
2022/01/28 14:50:47;;;;;;;;;;;15.20;54.10;;;;;;5116366;28;19958;-72
2022/01/28 14:53:14;;;;;;;;;;;15.20;54.20;;;;;;5116353;28;19924;-73
2022/01/28 14:55:42;;;;;;;;;;;15.20;54.10;;;;;;5110317;28;19924;-73
2022/01/28 14:58:09;;;;;;;;;;;15.20;54.10;;;;;;5094862;28;19924;-73
2022/01/28 15:00:35;;;;;;;;;;;15.20;54.10;;;;;;5094578;28;20015;-73
2022/01/28 15:03:02;;;;;;;;;;;15.20;54.10;;;;;;5094690;28;19924;-73
2022/01/28 15:05:30;;;;;;;;;;;16.00;54.50;;;;;;5093971;28;19978;-73
2022/01/28 15:07:57;;;;;;;;;;;15.20;54.10;;;;;;5094685;28;19978;-73
2022/01/28 15:10:28;;;;;;;;;;;15.20;54.10;;;;;;5094417;28;20444;-73
2022/01/28 15:12:54;;;;;;;;;;;15.20;54.10;;;;;;5094345;28;19967;-73
2022/01/28 15:15:21;;;;;;;;;;;15.20;54.10;;;;;;5095461;28;20029;-73
2022/01/28 15:17:47;;;;;;;;;;;15.20;54.10;;;;;;5094257;28;20023;-72
2022/01/28 15:20:14;;;;;;;;;;;15.20;54.10;;;;;;5094372;28;19924;-73